Time;durP1;ratioP1;P1;durP2;ratioP2;P2;SDS_P1;SDS_P2;PMS_P1;PMS_P2;Temp;Humidity;BMP_temperature;BMP_pressure;BME280_temperature;BME280_humidity;BME280_pressure;Samples;Min_cycle;Max_cycle;Signal;HPM_P1;HPM_P2
2022/08/13 00:01:15;;;;;;;19.20;10.00;;;;;;;21.68;100.00;99191.59;4323735;33;20036;-72
2022/08/13 00:03:44;;;;;;;13.02;10.07;;;;;;;21.86;100.00;99175.97;4325261;33;20032;-73
2022/08/13 00:06:11;;;;;;;14.18;9.88;;;;;;;22.04;100.00;99172.13;4323650;33;20028;-72
2022/08/13 00:08:39;;;;;;;12.80;10.40;;;;;;;22.24;100.00;99210.97;4325844;33;20160;-72
2022/08/13 00:11:07;;;;;;;14.38;9.85;;;;;;;21.93;100.00;99160.66;4325599;33;20063;-72
2022/08/13 00:13:34;;;;;;;13.40;9.88;;;;;;;22.07;100.00;99204.38;4323982;33;20036;-72
2022/08/13 00:16:01;;;;;;;11.38;10.05;;;;;;;22.09;100.00;99199.34;4308366;33;20028;-73
2022/08/13 00:18:36;;;;;;;17.05;10.77;;;;;;;22.08;100.00;99188.72;4310033;33;20418;-73
2022/08/13 00:21:02;;;;;;;17.92;10.73;;;;;;;21.97;100.00;99188.25;4320694;33;20041;-73
2022/08/13 00:23:29;;;;;;;14.10;10.52;;;;;;;21.65;100.00;99151.94;4322957;33;20082;-73
2022/08/13 00:25:57;;;;;;;11.85;9.88;;;;;;;21.83;100.00;99195.81;4320591;33;20056;-72
2022/08/13 00:28:30;;;;;;;11.55;10.05;;;;;;;21.93;100.00;99187.28;4309840;33;20055;-73
2022/08/13 00:30:59;;;;;;;15.25;10.63;;;;;;;22.05;100.00;99179.22;4297724;33;20033;-73
2022/08/13 00:33:25;;;;;;;14.02;10.18;;;;;;;22.08;100.00;99166.78;4294165;33;20071;-73
2022/08/13 00:35:53;;;;;;;11.90;10.52;;;;;;;22.00;100.00;99143.72;4296147;33;20053;-73
2022/08/13 00:38:24;;;;;;;18.45;10.60;;;;;;;21.76;100.00;99128.59;4295661;33;20122;-73
2022/08/13 00:40:53;;;;;;;15.70;10.27;;;;;;;21.60;100.00;99157.56;4281231;33;20100;-73
2022/08/13 00:43:20;;;;;;;16.37;9.70;;;;;;;21.73;100.00;99177.72;4273931;33;20046;-73
2022/08/13 00:45:47;;;;;;;12.82;10.18;;;;;;;21.53;100.00;99124.37;4267356;33;20041;-73
2022/08/13 00:51:08;;;;;;;11.90;10.30;;;;;;;21.54;100.00;99176.09;4280990;33;20049;-73
2022/08/13 00:53:37;;;;;;;12.07;9.95;;;;;;;21.40;100.00;99176.19;4293800;33;20045;-72
2022/08/13 00:56:05;;;;;;;15.77;9.77;;;;;;;21.27;100.00;99171.66;4308881;33;20480;-73
2022/08/13 00:58:33;;;;;;;15.02;10.43;;;;;;;21.12;100.00;99122.78;4299104;33;20062;-73
2022/08/13 01:01:01;;;;;;;13.15;9.60;;;;;;;21.46;100.00;99145.91;4322483;33;20029;-73
2022/08/13 01:03:30;;;;;;;16.60;10.15;;;;;;;21.17;100.00;99122.63;4324077;33;20074;-72
2022/08/13 01:05:59;;;;;;;12.25;9.98;;;;;;;21.42;100.00;99124.63;4323547;33;20417;-72
2022/08/13 01:08:27;;;;;;;13.82;10.32;;;;;;;21.54;100.00;99156.09;4323580;33;20097;-72
2022/08/13 01:10:56;;;;;;;12.05;9.60;;;;;;;21.47;100.00;99155.75;4326651;32;20419;-72
2022/08/13 01:13:25;;;;;;;13.82;10.18;;;;;;;21.40;100.00;99162.50;4340166;33;20385;-72
2022/08/13 01:15:52;;;;;;;13.13;9.43;;;;;;;21.33;100.00;99147.66;4339618;33;20065;-72
2022/08/13 01:18:22;;;;;;;16.67;10.73;;;;;;;21.45;100.00;99150.59;4339038;33;20090;-72
2022/08/13 01:21:00;;;;;;;12.65;10.63;;;;;;;21.33;100.00;99096.44;4345529;33;20378;-72
2022/08/13 01:23:30;;;;;;;12.40;10.43;;;;;;;21.61;100.00;99118.09;4353320;33;20066;-71
2022/08/13 01:25:59;;;;;;;11.63;10.43;;;;;;;21.48;100.00;99108.06;4352574;33;20054;-72
2022/08/13 01:28:27;;;;;;;13.85;10.75;;;;;;;21.16;100.00;99079.97;4352488;33;20112;-72
2022/08/13 01:30:56;;;;;;;16.65;11.25;;;;;;;21.52;100.00;99106.31;4354540;33;20122;-72
2022/08/13 01:33:24;;;;;;;17.05;12.13;;;;;;;21.39;100.00;99069.69;4350361;33;20047;-71
2022/08/13 01:35:52;;;;;;;12.48;10.55;;;;;;;21.42;100.00;99067.12;4350880;33;20031;-71
2022/08/13 01:38:25;;;;;;;14.23;11.00;;;;;;;21.62;100.00;99081.34;4352383;33;20076;-71
2022/08/13 01:40:52;;;;;;;12.68;10.63;;;;;;;21.66;100.00;99098.75;4328231;33;20378;-71
2022/08/13 01:43:19;;;;;;;15.10;11.25;;;;;;;21.46;100.00;99102.09;4325081;33;20071;-71
2022/08/13 01:45:48;;;;;;;12.93;10.65;;;;;;;21.44;100.00;99098.88;4354437;33;20690;-72
2022/08/13 01:51:03;;;;;;;18.87;11.20;;;;;;;21.51;100.00;99093.75;4327512;33;20054;-71
2022/08/13 01:53:30;;;;;;;16.15;11.27;;;;;;;21.25;100.00;99069.03;4325768;33;20056;-72
2022/08/13 01:55:56;;;;;;;12.85;11.12;;;;;;;21.53;100.00;99099.72;4325521;33;20024;-72
2022/08/13 01:58:25;;;;;;;14.32;11.45;;;;;;;21.48;100.00;99067.81;4326000;33;20044;-72
2022/08/13 02:00:55;;;;;;;16.33;11.93;;;;;;;21.31;100.00;99056.81;4315159;33;20066;-72
2022/08/13 02:03:21;;;;;;;15.25;10.35;;;;;;;21.55;100.00;99111.16;4314026;33;20033;-72
2022/08/13 02:05:50;;;;;;;14.45;11.38;;;;;;;20.96;100.00;99065.75;4310642;33;20037;-72
2022/08/13 02:08:23;;;;;;;22.80;11.95;;;;;;;21.19;100.00;99071.13;4312357;33;20048;-72
2022/08/13 02:10:52;;;;;;;13.48;9.30;;;;;;;21.34;100.00;99117.22;4311033;33;20071;-72
2022/08/13 02:13:22;;;;;;;13.82;10.57;;;;;;;21.13;100.00;99127.16;4310236;33;20431;-72
2022/08/13 02:15:49;;;;;;;13.77;11.25;;;;;;;21.28;100.00;99118.47;4312477;33;20438;-72
2022/08/13 02:18:19;;;;;;;16.55;11.65;;;;;;;21.27;100.00;99121.53;4316767;32;20070;-72
2022/08/13 02:20:52;;;;;;;16.92;10.43;;;;;;;21.46;100.00;99119.34;4356905;32;20121;-72
2022/08/13 02:23:21;;;;;;;16.30;10.48;;;;;;;21.31;100.00;99106.09;4352333;32;20110;-72
2022/08/13 02:25:50;;;;;;;12.57;9.90;;;;;;;21.33;100.00;99106.56;4351098;32;20052;-72
2022/08/13 02:28:19;;;;;;;14.77;10.70;;;;;;;21.28;100.00;99107.53;4356225;32;20035;-72
2022/08/13 02:30:48;;;;;;;11.32;9.32;;;;;;;21.23;100.00;99102.22;4356215;32;20459;-72
2022/08/13 02:33:15;;;;;;;11.32;10.00;;;;;;;20.93;100.00;99071.84;4370821;32;20061;-72
2022/08/13 02:35:45;;;;;;;13.35;10.52;;;;;;;21.15;100.00;99070.16;4373523;32;20433;-72
2022/08/13 02:38:12;;;;;;;13.02;11.07;;;;;;;21.56;100.00;99112.78;4373263;32;20046;-72
2022/08/13 02:43:26;;;;;;;15.13;11.70;;;;;;;22.04;100.00;99100.84;4373131;32;20081;-72
2022/08/13 02:45:53;;;;;;;18.10;11.80;;;;;;;22.23;100.00;99113.41;4373004;32;20364;-72
2022/08/13 02:48:24;;;;;;;18.05;13.60;;;;;;;22.23;100.00;99113.41;4354222;32;20028;-72
2022/08/13 02:50:54;;;;;;;18.17;12.75;;;;;;;21.57;100.00;99043.13;4353716;32;20043;-72
2022/08/13 02:53:23;;;;;;;16.87;13.13;;;;;;;22.09;100.00;99114.38;4355824;32;20073;-72
2022/08/13 02:55:50;;;;;;;21.80;11.80;;;;;;;22.08;100.00;99107.28;4355864;32;20053;-72
2022/08/13 02:58:17;;;;;;;15.63;11.43;;;;;;;21.86;100.00;99077.28;4341264;32;20036;-72
2022/08/13 03:00:49;;;;;;;17.40;12.63;;;;;;;21.91;100.00;99082.62;4336767;33;20040;-72
2022/08/13 03:03:17;;;;;;;14.45;11.45;;;;;;;22.01;100.00;99112.44;4352634;32;20044;-72
2022/08/13 03:05:44;;;;;;;14.27;10.95;;;;;;;21.97;100.00;99111.50;4356013;32;20062;-72
2022/08/13 03:08:11;;;;;;;13.95;11.05;;;;;;;21.89;100.00;99071.16;4355927;32;20424;-71
2022/08/13 03:10:39;;;;;;;13.93;10.10;;;;;;;22.04;100.00;99087.13;4355180;32;20106;-72
2022/08/13 03:13:28;;;;;;;14.52;11.25;;;;;;;22.08;100.00;99107.28;4349254;32;20036;-72
2022/08/13 03:15:56;;;;;;;12.70;11.00;;;;;;;22.02;100.00;99103.09;4336402;32;20044;-72
2022/08/13 03:18:24;;;;;;;20.95;12.15;;;;;;;21.99;100.00;99095.53;4342857;32;20040;-72
2022/08/13 03:20:50;;;;;;;18.02;12.20;;;;;;;21.73;100.00;99057.16;4354836;32;20031;-72
2022/08/13 03:23:17;;;;;;;17.65;11.27;;;;;;;21.96;100.00;99104.38;4355654;32;20036;-71
2022/08/13 03:25:44;;;;;;;16.55;10.68;;;;;;;21.65;100.00;99061.53;4355662;32;20036;-72
2022/08/13 03:28:10;;;;;;;12.15;10.10;;;;;;;21.60;100.00;99056.19;4355391;32;20278;-72
2022/08/13 03:30:37;;;;;;;16.27;10.40;;;;;;;21.80;100.00;99108.75;4353521;32;20043;-72
2022/08/13 03:33:09;;;;;;;15.48;11.15;;;;;;;21.86;100.00;99115.66;4339244;33;20126;-73
2022/08/13 03:35:37;;;;;;;19.60;11.77;;;;;;;21.81;100.00;99113.91;4340578;33;20101;-73
2022/08/13 03:38:07;;;;;;;13.02;11.57;;;;;;;21.69;100.00;99084.41;4342972;32;20455;-73
2022/08/13 03:43:20;;;;;;;13.77;10.80;;;;;;;21.48;100.00;99077.94;4355478;32;20165;-73
2022/08/13 03:45:46;;;;;;;16.87;10.60;;;;;;;21.56;100.00;99063.47;4353657;32;20428;-73
2022/08/13 03:48:14;;;;;;;14.02;11.88;;;;;;;21.70;100.00;99107.94;4354065;32;20036;-73
2022/08/13 03:50:46;;;;;;;13.57;11.77;;;;;;;21.87;100.00;99109.06;4355235;32;20057;-72
2022/08/13 03:53:13;;;;;;;13.93;11.65;;;;;;;21.72;100.00;99089.25;4347760;32;20048;-72
2022/08/13 03:55:41;;;;;;;15.35;11.15;;;;;;;21.53;100.00;99086.03;4355043;32;20376;-73
2022/08/13 03:58:17;;;;;;;18.27;11.48;;;;;;;21.67;100.00;99086.66;4339104;32;20351;-73
2022/08/13 04:00:48;;;;;;;17.33;12.95;;;;;;;21.96;100.00;99093.44;4340231;33;20047;-73
2022/08/13 04:03:19;;;;;;;;;;;;;;;21.94;100.00;99095.69;4345796;32;20047;-72
2022/08/13 04:05:46;;;;;;;17.05;11.00;;;;;;;22.16;100.00;99107.59;4367096;32;19961;-72
2022/08/13 04:08:13;;;;;;;17.40;11.90;;;;;;;22.10;100.00;99098.75;4356573;32;20047;-71
2022/08/13 04:10:40;;;;;;;13.95;11.68;;;;;;;22.05;100.00;99107.94;4355885;32;20048;-72
2022/08/13 04:13:15;;;;;;;13.45;11.02;;;;;;;21.93;100.00;99105.03;4358351;32;20083;-71
2022/08/13 04:15:43;;;;;;;14.05;11.12;;;;;;;21.83;100.00;99067.00;4370351;32;20047;-72
2022/08/13 04:18:11;;;;;;;14.98;11.88;;;;;;;21.92;100.00;99078.75;4370757;32;20042;-72
2022/08/13 04:20:42;;;;;;;22.58;13.00;;;;;;;21.98;100.00;99069.22;4371854;32;20043;-72
2022/08/13 04:23:16;;;;;;;15.50;12.60;;;;;;;22.16;100.00;99102.09;4358333;32;20044;-72
2022/08/13 04:25:52;;;;;;;14.63;11.88;;;;;;;22.24;100.00;99104.03;4356746;32;20036;-72
2022/08/13 04:28:21;;;;;;;15.07;11.65;;;;;;;22.06;100.00;99104.03;4360397;32;20184;-72
2022/08/13 04:30:47;;;;;;;16.25;11.77;;;;;;;21.88;100.00;99108.75;4360752;32;20043;-72
2022/08/13 04:33:15;;;;;;;15.65;11.88;;;;;;;21.74;100.00;99065.06;4360565;32;20046;-72
2022/08/13 04:35:44;;;;;;;13.10;10.98;;;;;;;22.05;100.00;99096.97;4370797;32;20035;-72
2022/08/13 04:38:12;;;;;;;13.77;11.12;;;;;;;21.95;100.00;99047.94;4362019;32;20467;-72
2022/08/13 04:40:41;;;;;;;17.02;11.12;;;;;;;22.39;100.00;99100.78;4356392;32;20035;-72
2022/08/13 04:43:10;;;;;;;12.60;10.30;;;;;;;22.26;100.00;99060.66;4355112;32;20417;-72
2022/08/13 04:45:38;;;;;;;17.02;10.63;;;;;;;22.20;100.00;99054.50;4354474;32;20428;-72
2022/08/13 04:48:09;;;;;;;10.73;9.00;;;;;;;22.72;100.00;99091.97;4356056;32;20187;-72
2022/08/13 04:50:37;;;;;;;10.07;9.07;;;;;;;22.41;100.00;99082.06;4356125;32;20136;-72
2022/08/13 04:53:09;;;;;;;13.25;9.60;;;;;;;22.52;100.00;99098.19;4355983;32;20388;-72
2022/08/13 04:55:37;;;;;;;11.77;10.40;;;;;;;22.55;100.00;99097.53;4355575;32;20105;-72
2022/08/13 04:58:04;;;;;;;14.68;10.00;;;;;;;22.23;100.00;99047.59;4360386;32;20044;-72
2022/08/13 05:00:32;;;;;;;13.13;9.82;;;;;;;22.68;100.00;99096.50;4368844;32;20035;-72
2022/08/13 05:03:14;;;;;;;12.55;10.05;;;;;;;22.63;100.00;99094.75;4355807;32;20044;-72
2022/08/13 05:05:43;;;;;;;15.18;10.57;;;;;;;22.73;100.00;99099.06;4355640;32;20070;-72
2022/08/13 05:08:11;;;;;;;15.30;10.98;;;;;;;22.70;100.00;99083.25;4355347;32;20035;-72
2022/08/13 05:10:39;;;;;;;14.80;10.02;;;;;;;22.74;100.00;99095.19;4356627;32;20027;-72
2022/08/13 05:13:33;;;;;;;17.00;10.95;;;;;;;22.53;100.00;99066.84;4354642;32;20079;-72
2022/08/13 05:16:02;;;;;;;16.52;11.52;;;;;;;22.60;100.00;99091.88;4323663;33;20033;-74
2022/08/13 05:18:31;;;;;;;14.93;10.63;;;;;;;22.73;100.00;99104.56;4320353;33;20056;-72
2022/08/13 05:21:01;;;;;;;12.45;10.50;;;;;;;22.30;100.00;99059.66;4324299;33;20838;-72
2022/08/13 05:23:28;;;;;;;14.50;10.75;;;;;;;22.69;100.00;99065.19;4325637;33;20057;-72
2022/08/13 05:26:01;;;;;;;19.27;12.93;;;;;;;22.60;100.00;99094.59;4335877;33;20044;-72
2022/08/13 05:28:29;;;;;;;12.77;11.30;;;;;;;22.71;100.00;99090.38;4336326;33;20056;-72
2022/08/13 05:30:55;;;;;;;16.35;12.10;;;;;;;22.49;100.00;99077.69;4339900;33;20040;-72
2022/08/13 05:33:24;;;;;;;13.27;11.88;;;;;;;22.80;100.00;99093.06;4339226;33;20044;-72
2022/08/13 05:35:57;;;;;;;15.43;11.10;;;;;;;22.80;100.00;99093.87;4339503;33;20033;-73
2022/08/13 05:38:27;;;;;;;16.08;11.50;;;;;;;22.84;100.00;99094.81;4323846;33;20045;-72
2022/08/13 05:40:57;;;;;;;13.15;11.25;;;;;;;22.67;100.00;99061.97;4324618;33;20062;-72
2022/08/13 05:43:30;;;;;;;15.43;12.18;;;;;;;22.69;100.00;99059.72;4334601;33;20058;-72
2022/08/13 05:46:02;;;;;;;14.93;12.27;;;;;;;22.70;100.00;99098.94;4333901;33;20074;-72
2022/08/13 05:48:31;;;;;;;14.27;11.73;;;;;;;22.72;100.00;99102.97;4322963;33;20956;-73
2022/08/13 05:51:00;;;;;;;17.50;11.18;;;;;;;22.83;100.00;99100.63;4318632;33;20078;-71
2022/08/13 05:53:28;;;;;;;13.77;10.75;;;;;;;22.58;100.00;99058.47;4332497;33;20055;-71
2022/08/13 05:55:56;;;;;;;12.23;10.52;;;;;;;22.93;100.00;99086.56;4353518;32;20527;-72
2022/08/13 05:58:25;;;;;;;18.12;9.88;;;;;;;22.95;100.00;99091.72;4356175;32;20059;-71
2022/08/13 06:03:39;;;;;;;12.27;10.32;;;;;;;22.75;100.00;99080.34;4355178;33;20039;-72
2022/08/13 06:06:10;;;;;;;11.93;9.35;;;;;;;23.01;100.00;99095.88;4356113;33;20073;-71
2022/08/13 06:08:41;;;;;;;10.10;7.95;;;;;;;22.88;100.00;99096.91;4356462;33;20032;-71
2022/08/13 06:11:17;;;;;;;13.05;8.73;;;;;;;22.25;100.00;99001.44;4355952;33;20055;-71
2022/08/13 06:13:48;;;;;;;9.90;7.82;;;;;;;22.61;100.00;99057.81;4354188;33;20036;-72
2022/08/13 06:16:18;;;;;;;9.38;7.70;;;;;;;22.49;100.00;99012.66;4355907;33;20066;-72
2022/08/13 06:18:46;;;;;;;11.40;8.23;;;;;;;22.81;100.00;99089.19;4355702;33;20061;-72
2022/08/13 06:21:14;;;;;;;15.43;8.52;;;;;;;22.73;100.00;99082.59;4354882;33;20463;-71
2022/08/13 06:23:45;;;;;;;10.25;7.78;;;;;;;22.58;100.00;99055.72;4344960;32;20040;-71
2022/08/13 06:26:14;;;;;;;14.98;8.13;;;;;;;22.44;100.00;99048.50;4364079;32;20043;-71
2022/08/13 06:28:42;;;;;;;13.15;8.85;;;;;;;22.56;100.00;99088.16;4355781;33;20040;-71
2022/08/13 06:31:14;;;;;;;13.13;7.60;;;;;;;22.74;100.00;99095.19;4367193;32;20031;-73
2022/08/13 06:36:15;;;;;;;11.05;9.10;;;;;;;22.94;100.00;99076.38;4326703;33;19950;-73
2022/08/13 06:38:49;;;;;;;9.50;7.75;;;;;;;22.75;100.00;99047.41;4326761;33;20028;-71
2022/08/13 06:41:18;;;;;;;11.57;7.72;;;;;;;22.66;100.00;99022.75;4309307;33;20117;-71
2022/08/13 06:43:47;;;;;;;12.80;8.02;;;;;;;23.11;100.00;99075.50;4311869;33;20489;-71
2022/08/13 06:46:18;;;;;;;10.70;8.52;;;;;;;23.17;100.00;99074.97;4315854;33;20058;-71
2022/08/13 06:48:46;;;;;;;;;;;;;;;23.18;100.00;99038.16;4318844;33;20048;-74
2022/08/13 06:51:13;;;;;;;9.52;8.45;;;;;;;23.43;100.00;99079.50;4310860;33;19954;-71
2022/08/13 06:53:42;;;;;;;9.10;6.82;;;;;;;23.32;100.00;99081.03;4324356;33;20398;-71
2022/08/13 06:56:22;;;;;;;9.88;7.03;;;;;;;23.35;100.00;99047.41;4324758;33;20062;-70
2022/08/13 06:58:50;;;;;;;7.43;6.68;;;;;;;23.46;100.00;99045.84;4324144;33;20028;-72
2022/08/13 07:01:19;;;;;;;7.80;6.93;;;;;;;23.72;100.00;99062.13;4326448;33;20082;-71
2022/08/13 07:03:46;;;;;;;8.65;6.93;;;;;;;23.60;100.00;99042.00;4325958;33;20098;-70
2022/08/13 07:06:16;;;;;;;10.85;6.68;;;;;;;23.73;100.00;99073.94;4338547;33;20073;-70
2022/08/13 07:08:44;;;;;;;7.78;6.87;;;;;;;23.30;100.00;99055.84;4338839;33;20051;-71
2022/08/13 07:11:22;;;;;;;7.97;7.18;;;;;;;23.44;100.00;99078.37;4340769;33;20100;-70
2022/08/13 07:13:58;;;;;;;8.15;6.28;;;;;;;23.08;100.00;99038.53;4326086;33;20336;-70
2022/08/13 07:16:30;;;;;;;8.10;6.43;;;;;;;23.15;100.00;99077.25;4335853;33;20431;-72
2022/08/13 07:18:59;;;;;;;8.15;7.35;;;;;;;22.92;100.00;99052.00;4333165;33;20437;-71
2022/08/13 07:21:28;;;;;;;7.07;6.07;;;;;;;22.94;100.00;99059.91;4338357;33;20080;-69
2022/08/13 07:23:56;;;;;;;8.27;6.20;;;;;;;23.03;100.00;99064.19;4338377;33;20036;-69
2022/08/13 07:26:28;;;;;;;7.70;6.35;;;;;;;23.21;100.00;99056.72;4337283;33;20031;-70
2022/08/13 07:28:54;;;;;;;11.18;6.18;;;;;;;23.24;100.00;99057.97;4356412;32;20044;-70
2022/08/13 07:31:29;;;;;;;8.60;6.72;;;;;;;23.36;100.00;99081.97;4350613;32;20073;-70
2022/08/13 07:33:59;;;;;;;11.68;6.85;;;;;;;23.58;100.00;99106.38;4354078;32;20083;-72
2022/08/13 07:36:29;;;;;;;7.78;6.68;;;;;;;23.48;100.00;99067.50;4356756;32;20052;-71
2022/08/13 07:38:57;;;;;;;8.43;6.82;;;;;;;23.88;100.00;99108.28;4361589;32;20132;-71
2022/08/13 07:41:27;;;;;;;8.25;5.82;;;;;;;23.50;100.00;99085.28;4353848;33;20057;-70
2022/08/13 07:43:53;;;;;;;8.10;7.30;;;;;;;23.67;100.00;99119.25;4366801;32;20065;-74
2022/08/13 07:46:19;;;;;;;8.25;7.45;;;;;;;23.51;100.00;99075.06;4356590;32;20185;-70
2022/08/13 07:48:49;;;;;;;8.02;7.22;;;;;;;23.41;100.00;99084.53;4358955;32;20409;-70
2022/08/13 07:51:22;;;;;;;8.32;7.25;;;;;;;23.69;100.00;99122.47;4357072;32;20065;-70
2022/08/13 07:53:51;;;;;;;9.43;7.37;;;;;;;23.69;100.00;99120.53;4355723;32;20056;-73
2022/08/13 07:56:28;;;;;;;10.07;6.95;;;;;;;23.41;100.00;99117.50;4355432;32;20061;-70
2022/08/13 07:59:02;;;;;;;8.65;7.57;;;;;;;23.20;100.00;99099.03;4351575;32;20036;-71
2022/08/13 08:01:42;;;;;;;11.98;6.35;;;;;;;23.17;100.00;99079.69;4355282;32;20039;-70
2022/08/13 08:04:13;;;;;;;13.85;7.40;;;;;;;23.44;100.00;99119.56;4366755;32;20056;-70
2022/08/13 08:06:40;;;;;;;11.38;7.22;;;;;;;23.08;100.00;99120.91;4361493;32;20066;-71
2022/08/13 08:09:10;;;;;;;9.77;7.10;;;;;;;22.71;100.00;99093.09;4360807;32;20339;-70
2022/08/13 08:14:27;;;;;;;11.43;6.78;;;;;;;22.94;100.00;99136.78;4355564;32;20091;-70
2022/08/13 08:16:53;;;;;;;;;;;;;;;22.95;100.00;99136.44;4356371;32;20471;-71
2022/08/13 08:19:20;;;;;;;10.95;7.37;;;;;;;22.85;100.00;99151.34;4354751;32;19957;-71
2022/08/13 08:21:47;;;;;;;11.12;7.85;;;;;;;22.53;100.00;99127.22;4321109;33;20069;-70
2022/08/13 08:24:16;;;;;;;10.70;8.02;;;;;;;22.22;100.00;99125.50;4315854;33;20176;-70
2022/08/13 08:26:46;;;;;;;9.13;7.90;;;;;;;22.12;100.00;99119.19;4324497;33;20398;-71
2022/08/13 08:29:13;;;;;;;10.30;7.75;;;;;;;22.19;100.00;99129.66;4322961;33;20410;-71
2022/08/13 08:31:41;;;;;;;13.25;8.85;;;;;;;22.10;100.00;99129.69;4335387;33;20032;-72
2022/08/13 08:34:08;;;;;;;15.30;8.48;;;;;;;22.51;100.00;99145.94;4339262;33;20040;-72
2022/08/13 08:36:40;;;;;;;10.15;8.60;;;;;;;22.60;100.00;99149.47;4330216;33;20041;-72
2022/08/13 08:44:43;;;;;;;18.55;8.52;;;;;;;23.16;100.00;99117.31;4324648;33;20057;-71
2022/08/13 08:47:11;;;;;;;16.67;10.52;;;;;;;23.36;100.00;99125.94;4322115;33;20061;-72
2022/08/13 08:49:38;;;;;;;15.40;8.45;;;;;;;23.43;100.00;99137.19;4323133;33;20066;-71
2022/08/13 08:52:08;;;;;;;9.60;7.60;;;;;;;23.44;100.00;99127.81;4299447;33;20074;-72
2022/08/13 08:54:35;;;;;;;10.25;7.78;;;;;;;23.59;100.00;99118.16;4317834;33;20081;-72
2022/08/13 08:57:03;;;;;;;14.05;8.25;;;;;;;23.47;100.00;99113.41;4306571;33;20028;-72
2022/08/13 08:59:32;;;;;;;8.13;7.25;;;;;;;23.58;100.00;99109.13;4282541;33;20539;-72
2022/08/13 09:02:19;;;;;;;18.12;8.15;;;;;;;23.51;100.00;99067.62;4295517;33;20066;-71
2022/08/13 09:04:53;;;;;;;12.05;7.18;;;;;;;23.51;100.00;99097.84;4295765;33;20048;-72
2022/08/13 09:07:21;;;;;;;11.52;6.35;;;;;;;23.36;100.00;99090.22;4293342;33;20435;-71
2022/08/13 09:09:51;;;;;;;9.13;6.62;;;;;;;23.19;100.00;99047.97;4295677;33;20090;-71
2022/08/13 09:12:23;;;;;;;7.68;6.80;;;;;;;23.10;100.00;99052.72;4295385;33;20025;-72
2022/08/13 09:14:52;;;;;;;6.80;6.10;;;;;;;23.28;100.00;99036.94;4296033;33;20033;-71
2022/08/13 09:17:19;;;;;;;6.28;5.72;;;;;;;23.39;100.00;99067.53;4261257;33;20360;-72
2022/08/13 09:19:46;;;;;;;8.23;5.93;;;;;;;22.87;100.00;99048.66;4253023;33;20068;-71
2022/08/13 09:22:18;;;;;;;8.10;5.90;;;;;;;22.95;100.00;99056.03;4259867;33;20478;-71
2022/08/13 09:24:47;;;;;;;;;;;;;;;22.46;100.00;99013.31;4284201;33;20033;-71
2022/08/13 09:27:17;;;;;;;6.97;5.40;;;;;;;22.85;100.00;99047.03;4292560;33;19932;-71
2022/08/13 09:29:45;;;;;;;13.38;5.25;;;;;;;22.79;100.00;99037.38;4286057;33;20033;-71
2022/08/13 09:32:15;;;;;;;11.48;5.18;;;;;;;22.94;100.00;99032.44;4323733;33;20036;-71
2022/08/13 09:34:44;;;;;;;7.65;4.87;;;;;;;23.14;100.00;99020.72;4322980;33;20383;-71
2022/08/13 09:37:12;;;;;;;8.20;5.55;;;;;;;22.93;100.00;98997.88;4323228;33;20066;-71
2022/08/13 09:39:42;;;;;;;11.57;6.00;;;;;;;23.38;100.00;99024.75;4327023;33;20158;-70
2022/08/13 09:42:17;;;;;;;8.32;5.57;;;;;;;23.21;100.00;98996.28;4332114;33;20385;-70
2022/08/13 09:44:44;;;;;;;10.07;5.50;;;;;;;23.00;100.00;99009.16;4323585;33;20032;-71
2022/08/13 09:47:11;;;;;;;6.03;5.40;;;;;;;22.97;100.00;98979.63;4322123;33;20044;-71
2022/08/13 09:49:38;;;;;;;6.18;5.15;;;;;;;23.47;100.00;99028.25;4321507;33;20084;-70
2022/08/13 09:52:04;;;;;;;9.52;4.75;;;;;;;23.60;100.00;98992.56;4322571;33;20058;-71
2022/08/13 09:54:34;;;;;;;5.75;5.18;;;;;;;23.97;100.00;99014.72;4321061;33;20070;-71
2022/08/13 09:57:01;;;;;;;4.90;4.40;;;;;;;23.96;100.00;98993.84;4322434;33;20045;-71
2022/08/13 09:59:29;;;;;;;5.97;4.75;;;;;;;24.13;100.00;99021.16;4320641;33;20461;-71
2022/08/13 10:01:56;;;;;;;9.70;3.60;;;;;;;24.25;100.00;99012.94;4322644;33;20049;-71
2022/08/13 10:04:23;;;;;;;6.57;4.43;;;;;;;24.18;100.00;98993.44;4321043;33;20397;-71
2022/08/13 10:06:50;;;;;;;8.23;4.32;;;;;;;24.48;100.00;99021.56;4321793;33;20058;-72
2022/08/13 10:09:16;;;;;;;4.90;3.90;;;;;;;24.33;100.00;99008.47;4322438;33;20044;-71
2022/08/13 10:11:43;;;;;;;12.93;4.03;;;;;;;24.18;100.00;98979.69;4325339;33;20024;-72
2022/08/13 10:14:09;;;;;;;4.20;3.90;;;;;;;24.47;100.00;99008.13;4326614;33;20172;-70
2022/08/13 10:16:36;;;;;;;4.15;3.85;;;;;;;24.55;100.00;99009.97;4319587;33;20025;-71
2022/08/13 10:19:03;;;;;;;4.60;3.97;;;;;;;24.25;100.00;98996.44;4323468;33;20056;-71
2022/08/13 10:21:29;;;;;;;9.60;4.20;;;;;;;24.02;100.00;98948.50;4340654;32;20417;-71
2022/08/13 10:23:56;;;;;;;5.50;4.43;;;;;;;24.41;100.00;98943.47;4355258;32;20409;-70
2022/08/13 10:26:22;;;;;;;5.97;4.55;;;;;;;24.99;100.00;98962.59;4352566;32;20039;-70
2022/08/13 10:28:48;;;;;;;5.68;4.35;;;;;;;24.69;100.00;98899.56;4347638;32;20061;-71
2022/08/13 10:31:14;;;;;;;4.30;3.90;;;;;;;25.10;100.00;98951.88;4348444;32;20044;-71
2022/08/13 10:33:41;;;;;;;8.20;3.90;;;;;;;25.07;100.00;98944.34;4348301;32;20069;-71
2022/08/13 10:36:08;;;;;;;4.60;4.20;;;;;;;24.94;100.00;98971.06;4357273;32;20036;-71
2022/08/13 10:38:34;;;;;;;5.62;3.60;;;;;;;25.06;100.00;98978.53;4353675;32;20039;-72
2022/08/13 10:41:07;;;;;;;5.03;4.37;;;;;;;24.86;100.00;98991.28;4354752;32;20074;-71
2022/08/13 10:43:37;;;;;;;4.35;3.90;;;;;;;24.71;100.00;98998.31;4354736;32;20358;-71
2022/08/13 10:46:06;;;;;;;3.95;3.60;;;;;;;24.54;100.00;98958.84;4352359;32;20059;-70
2022/08/13 10:48:33;;;;;;;4.22;3.45;;;;;;;24.74;100.00;98972.84;4343687;32;20025;-72
2022/08/13 10:50:59;;;;;;;5.15;3.83;;;;;;;24.98;100.00;99016.84;4341031;33;20042;-71
2022/08/13 10:56:11;;;;;;;5.72;5.22;;;;;;;24.82;100.00;99030.53;4345461;32;20031;-70
2022/08/13 10:58:39;;;;;;;5.28;4.78;;;;;;;24.33;100.00;99024.97;4344430;32;20032;-71
2022/08/13 11:01:06;;;;;;;6.22;5.62;;;;;;;24.29;100.00;99015.81;4357960;32;20070;-70
2022/08/13 11:03:33;;;;;;;10.90;5.45;;;;;;;24.17;100.00;98989.06;4357536;32;20058;-71
2022/08/13 11:06:01;;;;;;;9.07;5.05;;;;;;;24.55;100.00;99018.22;4359601;32;20039;-70
2022/08/13 11:08:27;;;;;;;6.12;4.15;;;;;;;24.52;100.00;98988.63;4355590;32;20047;-70
2022/08/13 11:10:54;;;;;;;5.70;4.75;;;;;;;24.84;100.00;98986.13;4362237;32;20059;-69
2022/08/13 11:13:21;;;;;;;4.50;3.70;;;;;;;25.23;100.00;98971.94;4356315;32;20047;-69
2022/08/13 11:15:47;;;;;;;4.20;3.92;;;;;;;25.17;100.00;98974.13;4326632;33;20068;-71
2022/08/13 11:18:20;;;;;;;4.45;4.05;;;;;;;25.22;100.00;98973.88;4323773;33;20050;-71
2022/08/13 11:21:02;;;;;;;7.25;5.12;;;;;;;25.81;100.00;98997.22;4326086;33;20095;-71
2022/08/13 11:23:31;;;;;;;4.50;4.07;;;;;;;25.62;100.00;98967.56;4325627;33;20070;-71
2022/08/13 11:25:58;;;;;;;4.97;4.07;;;;;;;25.35;100.00;98970.00;4338865;33;20049;-72
2022/08/13 11:28:25;;;;;;;6.95;3.90;;;;;;;25.81;100.00;98986.19;4340105;33;20036;-71
2022/08/13 11:30:53;;;;;;;6.22;3.72;;;;;;;26.17;100.00;98969.81;4339599;33;20065;-72
2022/08/13 11:33:21;;;;;;;5.70;4.18;;;;;;;26.60;100.00;98992.94;4340389;33;20431;-69
2022/08/13 11:35:48;;;;;;;4.35;3.95;;;;;;;26.74;100.00;98998.84;4334639;33;20054;-68
2022/08/13 11:38:16;;;;;;;5.22;3.80;;;;;;;27.12;100.00;98990.97;4325494;33;20033;-71
2022/08/13 11:40:49;;;;;;;3.62;3.42;;;;;;;26.77;100.00;98981.56;4339879;33;20047;-70
2022/08/13 11:43:15;;;;;;;4.55;3.83;;;;;;;26.97;100.00;98995.41;4333152;33;20054;-70
2022/08/13 11:45:41;;;;;;;3.42;3.12;;;;;;;27.16;100.00;98992.66;4340101;33;20085;-69
2022/08/13 11:48:08;;;;;;;3.97;3.67;;;;;;;27.00;100.00;98967.06;4340364;33;20475;-69
2022/08/13 11:50:35;;;;;;;9.07;4.07;;;;;;;26.77;100.00;98987.06;4339464;33;20053;-71
2022/08/13 11:53:01;;;;;;;5.25;3.70;;;;;;;26.72;100.00;98979.03;4338621;33;20072;-70